Time;durP1;ratioP1;P1;durP2;ratioP2;P2;SDS_P1;SDS_P2;PMS_P1;PMS_P2;Temp;Humidity;BMP_temperature;BMP_pressure;BME280_temperature;BME280_humidity;BME280_pressure;Samples;Min_cycle;Max_cycle;Signal;HPM_P1;HPM_P2
2022/03/31 00:00:40;;;;;;;10.77;6.30;;;;;;;1.98;100.00;98463.75;5098407;28;20385;-80
2022/03/31 00:03:09;;;;;;;10.25;6.13;;;;;;;1.84;100.00;98440.03;5098719;28;22474;-80
2022/03/31 00:05:36;;;;;;;17.45;6.72;;;;;;;1.92;100.00;98459.16;5103442;28;20019;-80
2022/03/31 00:08:08;;;;;;;11.02;5.82;;;;;;;2.07;100.00;98467.19;5102604;28;20048;-80
2022/03/31 00:10:43;;;;;;;10.95;6.13;;;;;;;1.87;100.00;98466.59;5099613;28;20051;-79
2022/03/31 00:13:24;;;;;;;13.05;5.60;;;;;;;1.87;100.00;98461.41;5093537;28;20042;-79
2022/03/31 00:15:52;;;;;;;10.85;6.07;;;;;;;1.73;100.00;98450.63;5105580;28;20027;-80
2022/03/31 00:18:18;;;;;;;12.50;5.95;;;;;;;1.79;100.00;98450.06;5104997;28;20028;-80
2022/03/31 00:32:23;;;;;;;12.68;6.90;;;;;;;1.71;100.00;98462.91;5100115;28;20459;-79
2022/03/31 00:34:49;;;;;;;15.00;7.35;;;;;;;1.48;100.00;98470.38;5099585;28;20111;-79
2022/03/31 00:37:14;;;;;;;12.50;7.25;;;;;;;1.62;100.00;98469.81;5105318;28;20154;-79
2022/03/31 00:39:42;;;;;;;14.70;7.75;;;;;;;1.46;100.00;98473.09;5098766;28;20050;-79
2022/03/31 00:42:09;;;;;;;12.85;7.70;;;;;;;1.40;100.00;98456.41;5100512;28;20463;-80
2022/03/31 00:44:35;;;;;;;15.77;8.27;;;;;;;1.36;100.00;98472.34;5105237;28;20119;-81
2022/03/31 00:47:00;;;;;;;14.32;7.60;;;;;;;1.31;100.00;98475.41;5095575;28;20469;-79
2022/03/31 00:49:26;;;;;;;14.90;7.32;;;;;;;1.42;100.00;98484.72;5073015;28;20030;-79
2022/03/31 00:51:53;;;;;;;16.85;8.27;;;;;;;1.37;100.00;98489.50;5080961;28;20035;-78
2022/03/31 00:54:22;;;;;;;12.70;7.50;;;;;;;1.59;100.00;98474.50;5099972;28;20031;-78
2022/03/31 00:56:49;;;;;;;20.33;8.30;;;;;;;1.63;100.00;98478.41;5095558;28;20036;-80
2022/03/31 00:59:16;;;;;;;14.40;7.03;;;;;;;1.64;100.00;98480.03;5099303;28;20031;-78
2022/03/31 01:01:43;;;;;;;12.43;6.30;;;;;;;1.41;100.00;98481.28;5103397;28;20046;-79
2022/03/31 01:04:09;;;;;;;15.60;7.10;;;;;;;1.40;100.00;98469.31;5096396;28;20180;-80
2022/03/31 01:06:35;;;;;;;14.98;6.45;;;;;;;1.54;100.00;98465.38;5097650;28;20039;-80
2022/03/31 01:09:03;;;;;;;11.35;5.75;;;;;;;1.36;100.00;98467.19;5096416;28;20032;-80
2022/03/31 01:11:29;;;;;;;10.18;5.07;;;;;;;1.49;100.00;98483.13;5095846;28;20028;-79
2022/03/31 01:13:55;;;;;;;15.88;5.20;;;;;;;1.33;100.00;98454.56;5097740;28;20039;-78
2022/03/31 01:16:21;;;;;;;10.18;4.78;;;;;;;1.51;100.00;98478.63;5105420;28;20028;-79
2022/03/31 01:18:47;;;;;;;15.40;4.53;;;;;;;1.39;100.00;98472.88;5102783;28;20405;-78
2022/03/31 01:21:13;;;;;;;8.30;4.50;;;;;;;1.42;100.00;98471.78;5100060;28;20537;-79
2022/03/31 01:23:39;;;;;;;14.77;4.57;;;;;;;1.28;100.00;98479.09;5098868;28;20149;-79
2022/03/31 01:26:09;;;;;;;9.95;4.90;;;;;;;1.14;100.00;98470.09;5101419;28;20114;-81
2022/03/31 01:28:37;;;;;;;7.53;4.70;;;;;;;0.95;100.00;98463.28;5099979;28;20020;-79
2022/03/31 01:31:04;;;;;;;9.50;4.53;;;;;;;1.19;100.00;98492.09;5100602;28;20035;-79
2022/03/31 01:33:30;;;;;;;14.18;4.93;;;;;;;1.32;100.00;98471.03;5099824;28;20023;-79
2022/03/31 01:35:56;;;;;;;10.00;4.70;;;;;;;1.39;100.00;98472.06;5106792;28;20119;-79
2022/03/31 01:38:22;;;;;;;15.27;4.97;;;;;;;1.26;100.00;98468.09;5095790;28;20127;-80
2022/03/31 01:40:48;;;;;;;7.97;4.70;;;;;;;1.26;100.00;98462.91;5100460;28;20081;-78
2022/03/31 01:43:14;;;;;;;10.38;4.47;;;;;;;1.11;100.00;98475.56;5099082;28;20042;-80
2022/03/31 01:45:40;;;;;;;14.23;4.70;;;;;;;1.14;100.00;98469.25;5095679;28;20040;-79
2022/03/31 01:48:06;;;;;;;9.95;4.40;;;;;;;1.00;100.00;98462.84;5097969;28;20039;-80
2022/03/31 01:50:36;;;;;;;14.43;4.30;;;;;;;1.40;100.00;98473.69;5094399;28;20040;-80
2022/03/31 01:53:02;;;;;;;10.43;5.10;;;;;;;1.27;100.00;98459.38;5099972;28;20051;-79
2022/03/31 01:55:27;;;;;;;12.85;5.22;;;;;;;1.19;100.00;98461.91;5094643;28;20539;-79
2022/03/31 01:57:53;;;;;;;16.10;5.32;;;;;;;1.20;100.00;98473.88;5099212;28;20367;-80
2022/03/31 02:00:19;;;;;;;9.48;5.05;;;;;;;0.97;100.00;98456.19;5080545;28;20093;-80
2022/03/31 02:02:44;;;;;;;16.67;5.65;;;;;;;1.06;100.00;98469.19;5099992;28;20491;-80
2022/03/31 02:05:12;;;;;;;11.93;5.95;;;;;;;1.25;100.00;98470.81;5099943;28;20047;-79
2022/03/31 02:07:38;;;;;;;12.10;5.60;;;;;;;1.15;100.00;98457.97;5095939;28;20426;-80
2022/03/31 02:10:13;;;;;;;12.05;6.05;;;;;;;1.30;100.00;98467.78;5084067;28;20049;-79
2022/03/31 02:12:41;;;;;;;12.88;5.97;;;;;;;0.97;100.00;98461.34;5098048;28;20043;-79
2022/03/31 02:15:10;;;;;;;11.77;5.70;;;;;;;1.05;100.00;98472.75;5096318;28;20036;-80
2022/03/31 02:17:36;;;;;;;11.45;5.65;;;;;;;1.16;100.00;98467.34;5099653;28;20106;-80
2022/03/31 02:20:02;;;;;;;9.65;5.68;;;;;;;1.08;100.00;98460.34;5097778;28;20032;-80
2022/03/31 02:22:28;;;;;;;11.32;5.85;;;;;;;1.12;100.00;98466.84;5102527;28;20062;-79
2022/03/31 02:24:54;;;;;;;14.68;6.30;;;;;;;1.18;100.00;98464.63;5103861;28;20032;-80
2022/03/31 02:35:31;;;;;;;14.80;6.28;;;;;;;1.14;100.00;98464.09;5102547;28;20054;-80
2022/03/31 02:37:57;;;;;;;10.35;5.78;;;;;;;1.26;100.00;98470.66;5095966;28;20028;-79
2022/03/31 02:40:23;;;;;;;9.73;5.20;;;;;;;1.31;100.00;98469.41;5099659;28;20401;-79
2022/03/31 02:42:49;;;;;;;13.10;6.72;;;;;;;1.25;100.00;98466.47;5079910;28;20028;-79
2022/03/31 02:45:15;;;;;;;11.70;6.10;;;;;;;1.23;100.00;98473.56;5106573;28;20032;-79
2022/03/31 02:47:40;;;;;;;15.25;7.05;;;;;;;1.31;100.00;98475.41;5083108;28;20031;-79
2022/03/31 02:50:07;;;;;;;14.95;6.95;;;;;;;1.11;100.00;98464.38;5103188;28;20059;-80
2022/03/31 02:55:28;;;;;;;11.10;6.20;;;;;;;1.26;100.00;98460.34;5102331;28;20062;-79
2022/03/31 02:57:55;;;;;;;14.00;6.00;;;;;;;1.14;100.00;98453.75;5102757;28;20019;-78
2022/03/31 03:00:21;;;;;;;14.30;6.28;;;;;;;1.08;100.00;98468.09;5100568;28;20032;-79
2022/03/31 03:02:47;;;;;;;12.35;5.78;;;;;;;0.89;100.00;98471.63;5104013;28;20431;-79
2022/03/31 03:05:14;;;;;;;10.93;5.18;;;;;;;1.02;100.00;98455.75;5104160;28;20023;-79
2022/03/31 03:07:40;;;;;;;10.77;5.18;;;;;;;1.11;100.00;98464.38;5105147;28;20027;-79
2022/03/31 03:10:06;;;;;;;9.05;4.50;;;;;;;1.01;100.00;98448.16;5106894;28;20015;-80
2022/03/31 03:12:31;;;;;;;13.80;5.10;;;;;;;1.11;100.00;98459.22;5104792;28;20481;-79
2022/03/31 03:14:57;;;;;;;12.05;4.65;;;;;;;1.03;100.00;98467.72;5101363;28;20043;-80
2022/03/31 03:17:23;;;;;;;10.65;5.10;;;;;;;1.20;100.00;98466.09;5103143;28;20024;-80
2022/03/31 03:19:48;;;;;;;13.50;5.30;;;;;;;1.16;100.00;98459.59;5102300;28;20465;-79
2022/03/31 03:22:14;;;;;;;18.75;5.97;;;;;;;1.34;100.00;98458.75;5103141;28;20072;-79
2022/03/31 03:24:40;;;;;;;9.88;5.32;;;;;;;1.22;100.00;98455.59;5102126;28;20397;-79
2022/03/31 03:27:05;;;;;;;13.02;6.28;;;;;;;1.12;100.00;98453.91;5100863;28;20032;-80
2022/03/31 03:29:31;;;;;;;14.35;6.38;;;;;;;1.24;100.00;98471.78;5105437;28;20020;-81
2022/03/31 03:31:57;;;;;;;14.10;6.43;;;;;;;1.26;100.00;98478.44;5101721;28;20040;-80
2022/03/31 03:34:23;;;;;;;12.43;6.20;;;;;;;1.45;100.00;98455.97;5102998;28;20040;-80
2022/03/31 03:36:48;;;;;;;11.38;6.45;;;;;;;1.31;100.00;98469.41;5099930;28;20028;-80
2022/03/31 03:39:14;;;;;;;10.95;5.47;;;;;;;1.23;100.00;98473.56;5097446;28;20031;-81
2022/03/31 03:41:41;;;;;;;15.88;5.00;;;;;;;1.22;100.00;98468.53;5103476;28;20538;-80
2022/03/31 03:44:07;;;;;;;12.07;6.60;;;;;;;1.25;100.00;98471.63;5097337;28;20035;-80
2022/03/31 03:46:33;;;;;;;10.95;5.57;;;;;;;1.32;100.00;98477.03;5104513;28;20031;-80
2022/03/31 03:48:58;;;;;;;11.77;5.32;;;;;;;1.20;100.00;98458.34;5099608;28;20037;-82
2022/03/31 03:51:24;;;;;;;10.10;5.93;;;;;;;1.11;100.00;98472.97;5103082;28;20126;-80
2022/03/31 03:53:51;;;;;;;19.80;6.50;;;;;;;1.18;100.00;98474.97;5096648;28;20020;-80
2022/03/31 03:56:17;;;;;;;11.77;5.15;;;;;;;1.04;100.00;98471.13;5097761;28;20027;-80
2022/03/31 03:58:43;;;;;;;10.57;4.78;;;;;;;1.22;100.00;98492.63;5102036;28;20081;-80
2022/03/31 04:01:08;;;;;;;9.68;4.72;;;;;;;1.17;100.00;98494.00;5099868;28;21874;-81
2022/03/31 04:03:34;;;;;;;10.50;5.22;;;;;;;1.19;100.00;98479.16;5096001;28;20116;-80
2022/03/31 04:06:02;;;;;;;9.82;4.95;;;;;;;1.10;100.00;98488.63;5104708;28;20068;-80
2022/03/31 04:08:30;;;;;;;10.80;5.32;;;;;;;1.26;100.00;98487.94;5102448;28;20499;-82
2022/03/31 04:10:56;;;;;;;9.13;5.43;;;;;;;1.45;100.00;98501.69;5101623;27;20031;-81
2022/03/31 04:13:22;;;;;;;14.73;5.25;;;;;;;1.21;100.00;98506.50;5099733;28;20497;-80
2022/03/31 04:15:47;;;;;;;12.02;4.88;;;;;;;1.16;100.00;98515.66;5098726;28;20035;-78
2022/03/31 04:18:13;;;;;;;10.98;4.93;;;;;;;1.34;100.00;98508.72;5102903;28;20115;-79
2022/03/31 04:20:39;;;;;;;8.43;4.70;;;;;;;1.22;100.00;98513.31;5095099;28;20031;-80
2022/03/31 04:23:06;;;;;;;10.80;4.43;;;;;;;1.18;100.00;98516.31;5102211;28;20359;-81
2022/03/31 04:25:31;;;;;;;11.38;4.75;;;;;;;1.31;100.00;98514.19;5102362;28;20028;-81
2022/03/31 04:27:57;;;;;;;14.07;5.28;;;;;;;1.50;100.00;98505.44;5105554;28;20036;-82
2022/03/31 04:30:22;;;;;;;9.77;4.38;;;;;;;1.50;100.00;98530.53;5100940;28;20016;-80
2022/03/31 04:32:49;;;;;;;10.60;5.05;;;;;;;1.48;100.00;98528.06;5100062;28;20048;-80
2022/03/31 04:35:15;;;;;;;15.13;5.55;;;;;;;1.56;100.00;98542.84;5099308;28;20054;-79
2022/03/31 04:37:41;;;;;;;11.82;5.18;;;;;;;1.45;100.00;98537.88;5095654;28;20028;-80
2022/03/31 04:40:08;;;;;;;13.13;5.15;;;;;;;1.53;100.00;98546.53;5103537;28;20366;-81
2022/03/31 04:42:34;;;;;;;10.02;5.75;;;;;;;1.49;100.00;98536.66;5102429;28;20035;-79
2022/03/31 04:45:02;;;;;;;10.52;5.47;;;;;;;1.50;100.00;98549.44;5100382;28;20115;-80
2022/03/31 04:47:29;;;;;;;11.75;6.50;;;;;;;1.49;100.00;98557.34;5100359;28;20040;-80
2022/03/31 04:49:54;;;;;;;15.93;6.95;;;;;;;1.32;100.00;98533.91;5096074;28;20044;-80
2022/03/31 04:52:22;;;;;;;12.77;7.05;;;;;;;1.45;100.00;98540.47;5105986;28;20103;-79
2022/03/31 04:54:48;;;;;;;14.27;7.63;;;;;;;1.40;100.00;98540.94;5097402;28;20031;-79
2022/03/31 04:57:15;;;;;;;12.20;6.70;;;;;;;1.69;100.00;98543.28;5101805;28;20581;-81
2022/03/31 04:59:41;;;;;;;13.80;7.13;;;;;;;1.56;100.00;98538.47;5100974;28;20051;-81
2022/03/31 05:02:08;;;;;;;16.83;7.68;;;;;;;1.38;100.00;98550.63;5101717;28;20032;-81
2022/03/31 05:04:33;;;;;;;18.92;7.88;;;;;;;1.38;100.00;98542.88;5105562;28;20111;-80
2022/03/31 05:06:59;;;;;;;11.50;6.70;;;;;;;1.31;100.00;98558.16;5099365;28;20037;-81
2022/03/31 05:09:26;;;;;;;13.60;6.50;;;;;;;1.55;100.00;98565.31;5085203;28;20035;-81
2022/03/31 05:11:51;;;;;;;11.23;6.60;;;;;;;1.34;100.00;98563.03;5104210;28;20031;-80
2022/03/31 05:14:18;;;;;;;16.45;7.20;;;;;;;1.26;100.00;98587.03;5104784;28;20078;-81
2022/03/31 05:16:44;;;;;;;13.95;6.80;;;;;;;1.24;100.00;98576.03;5105226;28;20055;-80
2022/03/31 05:19:11;;;;;;;9.30;6.07;;;;;;;1.20;100.00;98561.75;5079950;28;20027;-81
2022/03/31 05:21:38;;;;;;;12.52;6.40;;;;;;;1.22;100.00;98559.84;5103670;28;20031;-82
2022/03/31 05:24:04;;;;;;;12.60;6.55;;;;;;;1.17;100.00;98564.63;5103972;28;20030;-80
2022/03/31 05:26:30;;;;;;;11.13;6.35;;;;;;;0.96;100.00;98570.06;5099465;28;20107;-79
2022/03/31 05:28:56;;;;;;;14.40;5.85;;;;;;;0.90;100.00;98565.47;5101139;28;20555;-80
2022/03/31 05:31:22;;;;;;;13.48;6.57;;;;;;;1.17;100.00;98569.78;5083916;28;20390;-81
2022/03/31 05:33:47;;;;;;;16.38;6.05;;;;;;;1.02;100.00;98577.22;5098760;28;20027;-80
2022/03/31 05:36:14;;;;;;;16.85;5.88;;;;;;;1.21;100.00;98565.16;5092948;28;20428;-80
2022/03/31 05:38:40;;;;;;;13.18;5.47;;;;;;;1.25;100.00;98576.81;5095891;28;20465;-80
2022/03/31 05:41:05;;;;;;;10.20;5.68;;;;;;;1.06;100.00;98582.94;5098905;28;20047;-80
2022/03/31 05:43:31;;;;;;;13.30;6.43;;;;;;;0.94;100.00;98567.59;5095942;28;20125;-79
2022/03/31 05:45:56;;;;;;;11.20;6.40;;;;;;;1.37;100.00;98590.34;5103047;28;20035;-79
2022/03/31 05:48:22;;;;;;;54.58;11.43;;;;;;;1.40;100.00;98603.81;5100474;28;20032;-78
2022/03/31 05:50:47;;;;;;;12.75;6.72;;;;;;;1.17;100.00;98603.41;5101289;28;20056;-79
2022/03/31 05:53:13;;;;;;;16.65;8.23;;;;;;;1.35;100.00;98581.94;5102088;28;20028;-79
2022/03/31 05:55:40;;;;;;;14.82;7.50;;;;;;;1.15;100.00;98597.56;5101324;28;20024;-77
2022/03/31 05:58:08;;;;;;;20.40;7.43;;;;;;;0.99;100.00;98596.44;5102987;28;20066;-78
2022/03/31 06:00:34;;;;;;;20.55;7.35;;;;;;;1.34;100.00;98601.81;5098166;28;20481;-78
2022/03/31 06:02:59;;;;;;;19.15;6.78;;;;;;;1.01;100.00;98603.22;5105167;28;20072;-81
2022/03/31 06:05:26;;;;;;;17.52;5.65;;;;;;;1.07;100.00;98618.16;5107169;28;20118;-80
2022/03/31 06:07:52;;;;;;;13.40;6.10;;;;;;;1.17;100.00;98613.72;5112560;28;20126;-82
2022/03/31 06:10:20;;;;;;;14.68;5.47;;;;;;;1.00;100.00;98612.75;5106764;28;20035;-81
2022/03/31 06:12:46;;;;;;;13.98;6.18;;;;;;;1.13;100.00;98607.22;5106939;28;20043;-80
2022/03/31 06:15:12;;;;;;;15.30;6.38;;;;;;;1.20;100.00;98623.81;5108307;28;20040;-80
2022/03/31 06:17:43;;;;;;;11.05;5.78;;;;;;;0.98;100.00;98635.34;5107961;28;20081;-81
2022/03/31 06:20:11;;;;;;;14.00;6.70;;;;;;;0.84;100.00;98618.53;5101951;28;20449;-81
2022/03/31 06:22:37;;;;;;;12.43;6.43;;;;;;;1.11;100.00;98640.16;5107343;28;20046;-81
2022/03/31 06:25:04;;;;;;;10.35;6.18;;;;;;;1.15;100.00;98646.66;5086003;28;20055;-81
2022/03/31 06:27:30;;;;;;;13.00;5.70;;;;;;;1.11;100.00;98648.75;5083040;28;20027;-79
2022/03/31 06:29:56;;;;;;;8.70;5.72;;;;;;;1.11;100.00;98630.66;5104329;28;20028;-82
2022/03/31 06:32:22;;;;;;;12.25;5.55;;;;;;;1.38;100.00;98649.69;5103764;28;20027;-80
2022/03/31 06:34:47;;;;;;;14.43;7.55;;;;;;;0.98;100.00;98633.56;5107704;28;20023;-80
2022/03/31 06:37:13;;;;;;;9.70;6.22;;;;;;;1.34;100.00;98691.50;5104829;28;20028;-80
2022/03/31 06:39:39;;;;;;;13.98;8.43;;;;;;;1.64;100.00;98690.38;5109223;28;20027;-80
2022/03/31 06:42:04;;;;;;;16.15;10.20;;;;;;;1.70;100.00;98696.75;5099503;28;20040;-81
2022/03/31 06:44:31;;;;;;;14.90;10.85;;;;;;;1.94;100.00;98698.78;5104147;28;20027;-79
2022/03/31 06:46:57;;;;;;;13.23;7.47;;;;;;;1.68;100.00;98701.25;5106239;28;20043;-82
2022/03/31 06:49:23;;;;;;;17.25;6.93;;;;;;;1.40;100.00;98686.56;5095520;28;20021;-82
2022/03/31 06:51:51;;;;;;;7.82;4.78;;;;;;;1.70;100.00;98709.69;5109802;28;20024;-81
2022/03/31 06:54:18;;;;;;;10.00;3.50;;;;;;;1.47;100.00;98715.25;5091860;28;20051;-82
2022/03/31 06:56:46;;;;;;;7.40;3.88;;;;;;;1.66;100.00;98708.34;5110245;28;20086;-81
2022/03/31 06:59:12;;;;;;;14.95;4.53;;;;;;;1.92;100.00;98705.06;5108522;28;20057;-81
2022/03/31 07:01:37;;;;;;;17.02;4.00;;;;;;;1.82;100.00;98728.41;5105807;28;20027;-81
2022/03/31 07:04:04;;;;;;;7.60;4.47;;;;;;;1.50;100.00;98727.09;5101756;28;20031;-82
2022/03/31 07:06:29;;;;;;;15.57;5.68;;;;;;;1.65;100.00;98740.38;5096385;28;20474;-83
2022/03/31 07:08:55;;;;;;;17.35;5.00;;;;;;;1.65;100.00;98730.03;5103379;28;20085;-83
2022/03/31 07:11:21;;;;;;;8.68;5.22;;;;;;;1.53;100.00;98722.44;5109766;28;20024;-84
2022/03/31 07:13:48;;;;;;;10.85;5.45;;;;;;;1.61;100.00;98733.84;5081603;28;20063;-81
2022/03/31 07:16:16;;;;;;;11.57;6.05;;;;;;;1.52;100.00;98735.53;5104581;28;20028;-79
2022/03/31 07:18:43;;;;;;;16.25;6.32;;;;;;;1.73;100.00;98758.56;5106642;28;20035;-79
2022/03/31 07:21:08;;;;;;;11.30;6.80;;;;;;;2.02;100.00;98747.25;5111860;28;20458;-81
2022/03/31 07:23:34;;;;;;;11.35;7.18;;;;;;;2.54;100.00;98727.59;5111094;28;20051;-81
2022/03/31 07:25:59;;;;;;;12.63;6.75;;;;;;;2.21;100.00;98733.31;5089526;28;20035;-80
2022/03/31 07:28:26;;;;;;;15.35;6.32;;;;;;;2.13;100.00;98718.53;5105553;28;20027;-80
2022/03/31 07:30:51;;;;;;;12.02;6.38;;;;;;;2.22;100.00;98747.91;5087624;28;20046;-80
2022/03/31 07:33:21;;;;;;;10.50;6.20;;;;;;;1.74;100.00;98715.41;5096280;28;20106;-80
2022/03/31 07:35:48;;;;;;;9.75;6.72;;;;;;;2.27;100.00;98729.34;5107891;28;20058;-80
2022/03/31 07:38:16;;;;;;;12.48;6.93;;;;;;;2.31;100.00;98735.84;5104623;27;20028;-80
2022/03/31 07:40:42;;;;;;;13.43;6.97;;;;;;;2.57;100.00;98738.50;5108631;28;20034;-81
2022/03/31 07:43:08;;;;;;;8.40;5.53;;;;;;;2.51;100.00;98746.03;5105154;28;20040;-80
2022/03/31 07:45:35;;;;;;;7.93;5.13;;;;;;;2.41;100.00;98746.94;5090657;28;20127;-79
2022/03/31 07:48:02;;;;;;;7.18;4.15;;;;;;;2.03;100.00;98774.75;5108957;28;20028;-79
2022/03/31 07:50:29;;;;;;;6.05;3.63;;;;;;;2.01;100.00;98745.63;5108474;28;20035;-80
2022/03/31 07:52:55;;;;;;;9.82;3.78;;;;;;;2.22;100.00;98767.81;5107301;28;20024;-80
2022/03/31 07:55:21;;;;;;;7.05;3.70;;;;;;;2.33;100.00;98744.28;5105859;28;20180;-80
2022/03/31 07:57:48;;;;;;;5.22;3.33;;;;;;;2.59;100.00;98753.06;5096469;28;20549;-80
2022/03/31 08:00:15;;;;;;;6.25;3.25;;;;;;;2.63;100.00;98757.81;5097436;28;20055;-80
2022/03/31 08:02:45;;;;;;;9.00;3.58;;;;;;;2.50;100.00;98749.59;5101795;28;20480;-80
2022/03/31 08:05:11;;;;;;;9.63;4.43;;;;;;;2.53;100.00;98770.84;5101416;28;20035;-80
2022/03/31 08:07:38;;;;;;;13.43;4.38;;;;;;;2.48;100.00;98756.72;5101605;28;20038;-79
2022/03/31 08:10:05;;;;;;;7.30;4.22;;;;;;;2.16;100.00;98768.38;5110300;28;20024;-79
2022/03/31 08:12:31;;;;;;;9.45;3.97;;;;;;;2.22;100.00;98763.44;5100361;27;20165;-80
2022/03/31 08:14:58;;;;;;;7.25;3.60;;;;;;;2.46;100.00;98748.28;5104881;28;20028;-80
2022/03/31 08:17:24;;;;;;;5.25;3.55;;;;;;;2.57;100.00;98771.38;5105291;28;20032;-79
2022/03/31 08:19:49;;;;;;;6.47;2.97;;;;;;;2.57;100.00;98763.59;5101366;28;20433;-80
2022/03/31 08:22:17;;;;;;;5.72;3.28;;;;;;;2.49;100.00;98766.94;5102652;28;20034;-79
2022/03/31 08:24:45;;;;;;;6.13;2.80;;;;;;;2.60;100.00;98765.06;5103731;28;20035;-79
2022/03/31 08:27:10;;;;;;;5.05;2.55;;;;;;;2.42;100.00;98778.84;5104099;28;20485;-80
2022/03/31 08:29:37;;;;;;;4.93;2.28;;;;;;;2.58;100.00;98767.81;5099876;28;20024;-80
2022/03/31 08:32:04;;;;;;;4.55;2.45;;;;;;;2.75;100.00;98794.66;5104169;28;20027;-80
2022/03/31 08:34:30;;;;;;;5.40;2.28;;;;;;;2.63;100.00;98783.72;5097206;28;20039;-80
2022/03/31 08:36:56;;;;;;;11.18;1.90;;;;;;;2.23;100.00;98753.91;5106631;28;20038;-80
2022/03/31 08:39:21;;;;;;;3.17;2.00;;;;;;;2.36;100.00;98774.25;5105528;28;20032;-81
2022/03/31 08:41:47;;;;;;;4.03;1.90;;;;;;;2.32;100.00;98793.66;5107132;28;20050;-81
2022/03/31 08:44:18;;;;;;;6.40;2.17;;;;;;;2.50;100.00;98799.66;5107203;28;20401;-81
2022/03/31 08:46:44;;;;;;;2.95;2.15;;;;;;;2.63;100.00;98801.88;5102508;28;20543;-79
2022/03/31 08:49:12;;;;;;;7.15;2.50;;;;;;;3.32;100.00;98816.78;5113492;28;20047;-81
2022/03/31 08:51:45;;;;;;;8.43;2.33;;;;;;;3.03;100.00;98822.25;5098685;28;20097;-81
2022/03/31 08:54:11;;;;;;;6.15;2.92;;;;;;;3.28;100.00;98821.44;5107202;28;20473;-82
2022/03/31 08:56:38;;;;;;;4.40;2.03;;;;;;;3.28;100.00;98829.25;5109756;28;20036;-81
2022/03/31 08:59:07;;;;;;;5.15;2.47;;;;;;;3.29;100.00;98833.47;5106549;28;20096;-80
2022/03/31 09:01:34;;;;;;;12.10;3.00;;;;;;;3.52;100.00;98821.75;5102675;28;20032;-81
2022/03/31 09:04:00;;;;;;;8.40;3.40;;;;;;;3.47;100.00;98822.22;5100607;28;20036;-81
2022/03/31 09:06:28;;;;;;;11.45;3.35;;;;;;;3.52;100.00;98830.34;5102709;28;20233;-80
2022/03/31 09:09:00;;;;;;;9.32;3.67;;;;;;;3.03;100.00;98836.03;5104371;28;20093;-81
2022/03/31 09:11:33;;;;;;;11.70;4.93;;;;;;;3.92;100.00;98832.47;5109321;28;20084;-80
2022/03/31 09:14:04;;;;;;;8.18;4.10;;;;;;;3.47;100.00;98835.19;5105058;28;20031;-80
2022/03/31 09:16:39;;;;;;;9.85;5.32;;;;;;;3.71;100.00;98838.88;5109401;28;20036;-81
2022/03/31 09:19:09;;;;;;;7.40;3.80;;;;;;;3.64;100.00;98830.91;5098136;28;20020;-83
2022/03/31 09:21:52;;;;;;;7.13;3.67;;;;;;;3.92;100.00;98822.09;5103960;28;20035;-83
2022/03/31 09:24:24;;;;;;;6.53;2.78;;;;;;;3.78;100.00;98819.13;5102729;28;20028;-80
2022/03/31 09:26:50;;;;;;;4.90;3.03;;;;;;;4.24;100.00;98820.56;5103172;28;20038;-81
2022/03/31 09:29:20;;;;;;;6.70;3.35;;;;;;;4.10;100.00;98820.19;5085217;28;20028;-82
2022/03/31 09:31:51;;;;;;;6.22;2.30;;;;;;;3.80;100.00;98822.38;5097142;28;20032;-81
2022/03/31 09:34:18;;;;;;;6.72;2.72;;;;;;;3.53;100.00;98813.81;5095251;28;20088;-82
2022/03/31 09:36:49;;;;;;;11.30;4.85;;;;;;;4.00;100.00;98829.94;5097675;28;20028;-82
2022/03/31 09:39:17;;;;;;;9.90;3.38;;;;;;;4.07;100.00;98820.53;5102184;28;20028;-81
2022/03/31 09:41:48;;;;;;;5.90;2.78;;;;;;;4.06;100.00;98839.69;5103006;28;20027;-82
2022/03/31 09:44:16;;;;;;;4.90;2.55;;;;;;;4.42;100.00;98841.22;5100986;28;20358;-82
2022/03/31 09:46:44;;;;;;;5.90;2.80;;;;;;;4.39;100.00;98824.19;5102269;28;20020;-82
2022/03/31 09:49:29;;;;;;;4.80;2.60;;;;;;;4.20;100.00;98835.66;5081112;28;20028;-80
2022/03/31 09:52:02;;;;;;;8.73;2.17;;;;;;;4.10;100.00;98845.38;5102941;28;20043;-82
2022/03/31 09:54:31;;;;;;;7.65;1.90;;;;;;;4.35;100.00;98828.09;5096483;28;20062;-81
2022/03/31 09:56:59;;;;;;;4.38;1.90;;;;;;;4.92;100.00;98834.31;5096303;28;20081;-81
2022/03/31 09:59:38;;;;;;;3.20;2.20;;;;;;;5.24;100.00;98835.25;5100589;28;20028;-81
2022/03/31 10:02:04;;;;;;;4.97;2.15;;;;;;;3.98;100.00;98869.03;5096992;28;20115;-80
2022/03/31 10:04:31;;;;;;;2.88;1.77;;;;;;;3.31;100.00;98851.47;5083033;28;20031;-81
2022/03/31 10:06:58;;;;;;;2.00;1.80;;;;;;;3.44;100.00;98858.84;5095136;28;20031;-81
2022/03/31 10:09:24;;;;;;;3.53;1.80;;;;;;;3.45;100.00;98868.25;5103607;28;20461;-80
2022/03/31 10:12:14;;;;;;;3.20;1.73;;;;;;;3.28;100.00;98878.53;5092508;28;20021;-80
2022/03/31 10:14:55;;;;;;;3.92;2.22;;;;;;;3.61;100.00;98861.56;5098020;28;20060;-80
2022/03/31 10:17:28;;;;;;;4.10;2.38;;;;;;;3.56;100.00;98862.84;5092757;28;20036;-80
2022/03/31 10:20:09;;;;;;;3.10;1.90;;;;;;;3.63;100.00;98870.78;5098903;28;20031;-80
2022/03/31 10:25:20;;;;;;;5.18;1.65;;;;;;;3.65;100.00;98875.84;5099373;28;20077;-81
2022/03/31 10:27:46;;;;;;;3.65;1.90;;;;;;;3.66;100.00;98880.91;5095235;28;20106;-80
2022/03/31 10:30:12;;;;;;;3.13;1.75;;;;;;;4.21;100.00;98867.66;5095781;28;20148;-80
2022/03/31 10:32:52;;;;;;;3.83;2.03;;;;;;;4.35;100.00;98879.22;5096302;28;20103;-81
2022/03/31 10:35:27;;;;;;;2.60;1.42;;;;;;;4.16;100.00;98877.72;5097310;28;20044;-80
2022/03/31 10:37:54;;;;;;;5.47;1.38;;;;;;;4.26;100.00;98868.81;5095100;28;20038;-81
2022/03/31 10:40:35;;;;;;;8.50;1.77;;;;;;;4.52;100.00;98857.50;5094909;28;20043;-81
2022/03/31 10:43:02;;;;;;;4.80;1.60;;;;;;;4.72;100.00;98871.03;5078686;28;20059;-80
2022/03/31 10:45:54;;;;;;;3.55;1.58;;;;;;;4.78;100.00;98885.16;5097749;28;20028;-81
2022/03/31 10:48:24;;;;;;;8.03;2.30;;;;;;;4.99;100.00;98883.88;5101087;28;20039;-82
2022/03/31 10:51:07;;;;;;;6.93;2.00;;;;;;;4.41;100.00;98874.22;5099430;28;20469;-80
2022/03/31 10:53:35;;;;;;;4.95;2.17;;;;;;;4.06;100.00;98880.44;5105879;28;20027;-84
2022/03/31 10:56:03;;;;;;;4.40;1.92;;;;;;;4.39;100.00;98868.38;5103358;28;20046;-80
2022/03/31 10:58:30;;;;;;;9.23;2.85;;;;;;;4.72;100.00;98859.81;5104597;28;20031;-81
2022/03/31 11:01:00;;;;;;;8.27;2.42;;;;;;;4.89;100.00;98873.63;5099400;28;20071;-80
2022/03/31 11:03:26;;;;;;;9.15;2.85;;;;;;;5.28;100.00;98865.16;5103787;28;20030;-80
2022/03/31 11:06:01;;;;;;;5.88;2.25;;;;;;;5.33;100.00;98858.69;5101104;28;20048;-81
2022/03/31 11:08:27;;;;;;;8.30;2.10;;;;;;;5.17;100.00;98851.69;5101354;28;20081;-80
2022/03/31 11:10:54;;;;;;;5.30;2.50;;;;;;;5.19;100.00;98860.97;5097744;28;20024;-79
2022/03/31 11:13:33;;;;;;;3.97;2.70;;;;;;;5.34;100.00;98866.31;5098682;28;20047;-79
2022/03/31 11:15:59;;;;;;;6.85;2.30;;;;;;;5.85;100.00;98862.63;5096965;28;20050;-80
2022/03/31 11:18:24;;;;;;;6.07;2.40;;;;;;;6.05;100.00;98854.44;5098311;28;20545;-79
2022/03/31 11:20:57;;;;;;;9.23;2.75;;;;;;;6.00;100.00;98852.31;5102182;28;20024;-79
2022/03/31 11:23:24;;;;;;;5.72;3.75;;;;;;;5.83;100.00;98852.34;5097290;28;20143;-80
2022/03/31 11:25:52;;;;;;;4.25;2.58;;;;;;;5.42;100.00;98865.47;5101901;28;20381;-80
2022/03/31 11:28:18;;;;;;;8.10;3.22;;;;;;;5.08;100.00;98861.28;5095135;27;20382;-80
2022/03/31 11:30:48;;;;;;;7.97;2.42;;;;;;;5.57;100.00;98853.41;5099795;28;20028;-81
2022/03/31 11:33:14;;;;;;;7.70;1.80;;;;;;;5.01;100.00;98858.50;5097001;28;20028;-80
2022/03/31 11:35:42;;;;;;;5.82;1.95;;;;;;;3.93;100.00;98888.63;5102851;28;20028;-80
2022/03/31 11:38:16;;;;;;;8.55;2.10;;;;;;;3.25;100.00;98891.00;5101982;28;20062;-79
2022/03/31 11:40:44;;;;;;;6.43;2.40;;;;;;;3.04;100.00;98889.53;5101782;28;20036;-79
2022/03/31 11:43:12;;;;;;;5.78;2.35;;;;;;;2.97;100.00;98881.53;5098146;28;20093;-79
2022/03/31 11:45:45;;;;;;;2.78;2.42;;;;;;;3.16;100.00;98869.38;5098698;28;20112;-79
2022/03/31 11:48:20;;;;;;;7.70;3.35;;;;;;;3.27;100.00;98870.91;5102033;28;20019;-79
2022/03/31 11:50:56;;;;;;;4.03;2.28;;;;;;;3.54;100.00;98867.38;5092098;28;20035;-80
2022/03/31 11:53:43;;;;;;;4.97;1.80;;;;;;;3.59;100.00;98879.06;5094606;28;20031;-79
2022/03/31 11:56:21;;;;;;;2.78;2.10;;;;;;;4.15;100.00;98874.28;5106432;28;20020;-80